sensor_id;sensor_type;location;lat;lon;timestamp;P1;durP1;ratioP1;P2;durP2;ratioP2
249;SDS011;109;19.806;-70.704;2022-12-07T00:01:11;12.80;;;5.37;;
249;SDS011;109;19.806;-70.704;2022-12-07T00:03:40;18.07;;;5.40;;
249;SDS011;109;19.806;-70.704;2022-12-07T00:06:09;15.40;;;5.50;;
249;SDS011;109;19.806;-70.704;2022-12-07T00:08:37;12.30;;;4.87;;
249;SDS011;109;19.806;-70.704;2022-12-07T00:11:07;11.00;;;5.40;;
249;SDS011;109;19.806;-70.704;2022-12-07T00:13:36;14.63;;;5.80;;
249;SDS011;109;19.806;-70.704;2022-12-07T00:16:05;11.17;;;5.00;;
249;SDS011;109;19.806;-70.704;2022-12-07T00:18:33;14.07;;;6.00;;
249;SDS011;109;19.806;-70.704;2022-12-07T00:21:03;18.03;;;6.50;;
249;SDS011;109;19.806;-70.704;2022-12-07T00:23:33;17.27;;;6.10;;
249;SDS011;109;19.806;-70.704;2022-12-07T00:28:33;17.13;;;6.23;;
249;SDS011;109;19.806;-70.704;2022-12-07T00:31:01;12.03;;;6.00;;
249;SDS011;109;19.806;-70.704;2022-12-07T00:33:28;16.70;;;6.60;;
249;SDS011;109;19.806;-70.704;2022-12-07T00:35:58;14.50;;;6.83;;
249;SDS011;109;19.806;-70.704;2022-12-07T00:38:27;23.90;;;7.00;;
249;SDS011;109;19.806;-70.704;2022-12-07T00:40:55;16.80;;;6.87;;
249;SDS011;109;19.806;-70.704;2022-12-07T00:43:24;17.23;;;7.80;;
249;SDS011;109;19.806;-70.704;2022-12-07T00:45:51;24.53;;;8.97;;
249;SDS011;109;19.806;-70.704;2022-12-07T00:48:18;20.73;;;7.87;;
249;SDS011;109;19.806;-70.704;2022-12-07T00:50:45;20.10;;;7.50;;
249;SDS011;109;19.806;-70.704;2022-12-07T00:53:12;19.30;;;7.90;;
249;SDS011;109;19.806;-70.704;2022-12-07T00:55:39;19.53;;;8.40;;
249;SDS011;109;19.806;-70.704;2022-12-07T00:58:12;17.80;;;7.50;;
249;SDS011;109;19.806;-70.704;2022-12-07T01:00:40;18.60;;;8.07;;
249;SDS011;109;19.806;-70.704;2022-12-07T01:03:15;15.60;;;6.93;;
249;SDS011;109;19.806;-70.704;2022-12-07T01:05:49;24.77;;;7.00;;
249;SDS011;109;19.806;-70.704;2022-12-07T01:08:27;23.10;;;6.50;;
249;SDS011;109;19.806;-70.704;2022-12-07T01:11:02;21.80;;;7.40;;
249;SDS011;109;19.806;-70.704;2022-12-07T01:13:37;19.23;;;6.57;;
249;SDS011;109;19.806;-70.704;2022-12-07T01:16:04;14.67;;;6.10;;
249;SDS011;109;19.806;-70.704;2022-12-07T01:18:38;12.00;;;6.00;;
249;SDS011;109;19.806;-70.704;2022-12-07T01:23:41;15.23;;;5.97;;
249;SDS011;109;19.806;-70.704;2022-12-07T01:26:13;17.30;;;5.40;;
249;SDS011;109;19.806;-70.704;2022-12-07T01:28:48;13.60;;;5.10;;
249;SDS011;109;19.806;-70.704;2022-12-07T01:31:16;13.90;;;5.33;;
249;SDS011;109;19.806;-70.704;2022-12-07T01:34:06;10.87;;;5.43;;
249;SDS011;109;19.806;-70.704;2022-12-07T01:36:39;11.00;;;5.70;;
249;SDS011;109;19.806;-70.704;2022-12-07T01:39:19;13.97;;;5.97;;
249;SDS011;109;19.806;-70.704;2022-12-07T01:41:46;16.53;;;5.77;;
249;SDS011;109;19.806;-70.704;2022-12-07T01:44:26;16.70;;;5.60;;
249;SDS011;109;19.806;-70.704;2022-12-07T01:47:03;22.23;;;5.90;;
249;SDS011;109;19.806;-70.704;2022-12-07T01:49:45;13.57;;;5.37;;
249;SDS011;109;19.806;-70.704;2022-12-07T01:52:31;17.20;;;6.77;;
249;SDS011;109;19.806;-70.704;2022-12-07T01:55:14;14.70;;;6.20;;
249;SDS011;109;19.806;-70.704;2022-12-07T01:57:43;30.63;;;8.10;;
249;SDS011;109;19.806;-70.704;2022-12-07T02:00:26;20.37;;;8.10;;
249;SDS011;109;19.806;-70.704;2022-12-07T02:03:01;17.10;;;8.43;;
249;SDS011;109;19.806;-70.704;2022-12-07T02:06:04;21.50;;;8.17;;
249;SDS011;109;19.806;-70.704;2022-12-07T02:08:46;22.33;;;7.20;;
249;SDS011;109;19.806;-70.704;2022-12-07T02:11:13;23.50;;;7.03;;
249;SDS011;109;19.806;-70.704;2022-12-07T02:13:53;20.40;;;7.23;;
249;SDS011;109;19.806;-70.704;2022-12-07T02:19:57;23.37;;;6.97;;
249;SDS011;109;19.806;-70.704;2022-12-07T02:29:11;20.73;;;6.10;;
249;SDS011;109;19.806;-70.704;2022-12-07T02:32:01;20.80;;;6.30;;
249;SDS011;109;19.806;-70.704;2022-12-07T02:37:43;12.87;;;5.30;;
249;SDS011;109;19.806;-70.704;2022-12-07T02:40:44;13.77;;;5.30;;
249;SDS011;109;19.806;-70.704;2022-12-07T02:46:15;17.30;;;5.43;;
249;SDS011;109;19.806;-70.704;2022-12-07T02:49:00;16.00;;;5.33;;
249;SDS011;109;19.806;-70.704;2022-12-07T02:51:29;18.57;;;5.23;;
249;SDS011;109;19.806;-70.704;2022-12-07T02:54:14;21.37;;;6.20;;
249;SDS011;109;19.806;-70.704;2022-12-07T02:57:15;13.80;;;5.97;;
249;SDS011;109;19.806;-70.704;2022-12-07T03:00:04;15.37;;;5.60;;
249;SDS011;109;19.806;-70.704;2022-12-07T03:02:53;18.20;;;5.37;;
249;SDS011;109;19.806;-70.704;2022-12-07T03:11:12;18.57;;;5.33;;
249;SDS011;109;19.806;-70.704;2022-12-07T03:14:45;18.13;;;4.97;;
249;SDS011;109;19.806;-70.704;2022-12-07T03:17:09;14.07;;;4.83;;
249;SDS011;109;19.806;-70.704;2022-12-07T03:19:59;11.67;;;4.40;;
249;SDS011;109;19.806;-70.704;2022-12-07T03:22:45;14.77;;;5.10;;
249;SDS011;109;19.806;-70.704;2022-12-07T03:25:26;15.30;;;4.60;;
249;SDS011;109;19.806;-70.704;2022-12-07T03:30:41;12.20;;;4.80;;
249;SDS011;109;19.806;-70.704;2022-12-07T03:36:35;11.40;;;5.27;;
249;SDS011;109;19.806;-70.704;2022-12-07T03:39:31;12.60;;;5.60;;
249;SDS011;109;19.806;-70.704;2022-12-07T03:42:12;13.63;;;5.00;;
249;SDS011;109;19.806;-70.704;2022-12-07T03:44:52;14.27;;;5.57;;
249;SDS011;109;19.806;-70.704;2022-12-07T03:47:26;16.60;;;5.80;;
249;SDS011;109;19.806;-70.704;2022-12-07T03:50:38;13.50;;;5.40;;
249;SDS011;109;19.806;-70.704;2022-12-07T03:53:35;14.17;;;6.23;;
249;SDS011;109;19.806;-70.704;2022-12-07T03:56:14;16.60;;;5.63;;
249;SDS011;109;19.806;-70.704;2022-12-07T03:58:55;19.53;;;5.23;;
249;SDS011;109;19.806;-70.704;2022-12-07T04:01:22;16.30;;;4.60;;
249;SDS011;109;19.806;-70.704;2022-12-07T04:04:03;11.70;;;4.20;;
249;SDS011;109;19.806;-70.704;2022-12-07T04:06:30;13.17;;;5.17;;
249;SDS011;109;19.806;-70.704;2022-12-07T04:09:09;12.20;;;4.90;;
249;SDS011;109;19.806;-70.704;2022-12-07T04:11:35;23.33;;;6.07;;
249;SDS011;109;19.806;-70.704;2022-12-07T04:14:16;12.67;;;6.17;;
249;SDS011;109;19.806;-70.704;2022-12-07T04:16:54;17.87;;;6.10;;
249;SDS011;109;19.806;-70.704;2022-12-07T04:19:35;13.27;;;5.63;;
249;SDS011;109;19.806;-70.704;2022-12-07T04:22:02;22.20;;;6.40;;
249;SDS011;109;19.806;-70.704;2022-12-07T04:24:43;26.93;;;8.30;;
249;SDS011;109;19.806;-70.704;2022-12-07T04:27:10;29.10;;;6.77;;
249;SDS011;109;19.806;-70.704;2022-12-07T04:29:50;23.10;;;5.73;;
249;SDS011;109;19.806;-70.704;2022-12-07T04:32:17;18.70;;;6.43;;
249;SDS011;109;19.806;-70.704;2022-12-07T04:35:03;18.47;;;5.30;;
249;SDS011;109;19.806;-70.704;2022-12-07T04:37:36;15.80;;;6.03;;
249;SDS011;109;19.806;-70.704;2022-12-07T04:40:16;17.10;;;5.87;;
249;SDS011;109;19.806;-70.704;2022-12-07T04:42:43;23.53;;;6.60;;
249;SDS011;109;19.806;-70.704;2022-12-07T04:45:23;15.90;;;5.97;;
249;SDS011;109;19.806;-70.704;2022-12-07T04:48:03;12.40;;;5.50;;
249;SDS011;109;19.806;-70.704;2022-12-07T04:50:30;21.13;;;5.30;;
249;SDS011;109;19.806;-70.704;2022-12-07T04:53:18;12.13;;;4.90;;
249;SDS011;109;19.806;-70.704;2022-12-07T04:55:51;12.10;;;4.83;;
249;SDS011;109;19.806;-70.704;2022-12-07T04:58:33;15.80;;;5.10;;
249;SDS011;109;19.806;-70.704;2022-12-07T05:00:59;15.20;;;5.00;;
249;SDS011;109;19.806;-70.704;2022-12-07T05:03:40;19.40;;;4.20;;
249;SDS011;109;19.806;-70.704;2022-12-07T05:06:07;18.00;;;4.80;;
249;SDS011;109;19.806;-70.704;2022-12-07T05:08:46;11.70;;;4.33;;
249;SDS011;109;19.806;-70.704;2022-12-07T05:11:13;9.97;;;4.63;;
249;SDS011;109;19.806;-70.704;2022-12-07T05:14:13;15.33;;;4.57;;
249;SDS011;109;19.806;-70.704;2022-12-07T05:16:51;8.60;;;4.00;;
249;SDS011;109;19.806;-70.704;2022-12-07T05:19:32;8.23;;;4.20;;
249;SDS011;109;19.806;-70.704;2022-12-07T05:21:59;16.50;;;4.80;;
249;SDS011;109;19.806;-70.704;2022-12-07T05:24:38;15.20;;;4.50;;
249;SDS011;109;19.806;-70.704;2022-12-07T05:27:05;13.80;;;5.30;;
249;SDS011;109;19.806;-70.704;2022-12-07T05:29:44;9.00;;;4.53;;
249;SDS011;109;19.806;-70.704;2022-12-07T05:32:11;11.30;;;5.20;;
249;SDS011;109;19.806;-70.704;2022-12-07T05:35:00;11.23;;;4.53;;
249;SDS011;109;19.806;-70.704;2022-12-07T05:37:33;15.27;;;4.83;;
249;SDS011;109;19.806;-70.704;2022-12-07T05:40:13;10.37;;;4.40;;
249;SDS011;109;19.806;-70.704;2022-12-07T05:42:54;18.33;;;4.93;;
249;SDS011;109;19.806;-70.704;2022-12-07T05:45:20;7.00;;;4.17;;
249;SDS011;109;19.806;-70.704;2022-12-07T05:48:00;13.20;;;4.40;;
249;SDS011;109;19.806;-70.704;2022-12-07T05:50:27;8.43;;;4.00;;
249;SDS011;109;19.806;-70.704;2022-12-07T05:53:07;12.40;;;4.23;;
249;SDS011;109;19.806;-70.704;2022-12-07T05:55:41;11.67;;;4.40;;
249;SDS011;109;19.806;-70.704;2022-12-07T05:58:20;14.13;;;5.27;;
249;SDS011;109;19.806;-70.704;2022-12-07T06:01:11;13.47;;;4.47;;
249;SDS011;109;19.806;-70.704;2022-12-07T06:03:51;10.57;;;4.60;;
249;SDS011;109;19.806;-70.704;2022-12-07T06:06:18;9.00;;;4.10;;
249;SDS011;109;19.806;-70.704;2022-12-07T06:08:58;11.87;;;4.70;;
249;SDS011;109;19.806;-70.704;2022-12-07T06:11:25;12.70;;;5.20;;
249;SDS011;109;19.806;-70.704;2022-12-07T06:14:23;11.83;;;4.63;;
249;SDS011;109;19.806;-70.704;2022-12-07T06:16:50;9.97;;;4.63;;
249;SDS011;109;19.806;-70.704;2022-12-07T06:19:30;10.70;;;4.70;;
249;SDS011;109;19.806;-70.704;2022-12-07T06:21:57;10.33;;;4.63;;
249;SDS011;109;19.806;-70.704;2022-12-07T06:24:38;11.80;;;3.97;;
249;SDS011;109;19.806;-70.704;2022-12-07T06:27:05;11.20;;;4.83;;
249;SDS011;109;19.806;-70.704;2022-12-07T06:29:45;25.00;;;6.37;;
249;SDS011;109;19.806;-70.704;2022-12-07T06:32:12;39.00;;;7.63;;
249;SDS011;109;19.806;-70.704;2022-12-07T06:34:51;39.63;;;10.10;;
249;SDS011;109;19.806;-70.704;2022-12-07T06:37:29;39.10;;;10.30;;
249;SDS011;109;19.806;-70.704;2022-12-07T06:40:11;45.77;;;10.80;;
249;SDS011;109;19.806;-70.704;2022-12-07T06:42:51;44.37;;;10.70;;
249;SDS011;109;19.806;-70.704;2022-12-07T06:45:18;34.07;;;8.37;;
249;SDS011;109;19.806;-70.704;2022-12-07T06:47:57;39.80;;;9.53;;
249;SDS011;109;19.806;-70.704;2022-12-07T06:50:23;32.60;;;8.30;;
249;SDS011;109;19.806;-70.704;2022-12-07T06:53:03;37.63;;;9.23;;
249;SDS011;109;19.806;-70.704;2022-12-07T06:55:30;39.87;;;9.60;;
249;SDS011;109;19.806;-70.704;2022-12-07T06:58:18;40.03;;;8.93;;
249;SDS011;109;19.806;-70.704;2022-12-07T07:00:51;57.00;;;9.27;;
249;SDS011;109;19.806;-70.704;2022-12-07T07:03:31;41.80;;;9.37;;
249;SDS011;109;19.806;-70.704;2022-12-07T07:05:58;44.10;;;11.07;;
249;SDS011;109;19.806;-70.704;2022-12-07T07:08:38;65.37;;;14.17;;
249;SDS011;109;19.806;-70.704;2022-12-07T07:11:05;51.50;;;12.07;;
249;SDS011;109;19.806;-70.704;2022-12-07T07:13:46;60.57;;;9.37;;
249;SDS011;109;19.806;-70.704;2022-12-07T07:16:13;27.73;;;7.70;;
249;SDS011;109;19.806;-70.704;2022-12-07T07:18:53;63.30;;;10.70;;
249;SDS011;109;19.806;-70.704;2022-12-07T07:21:20;24.00;;;7.40;;
249;SDS011;109;19.806;-70.704;2022-12-07T07:23:59;34.70;;;7.43;;
249;SDS011;109;19.806;-70.704;2022-12-07T07:26:26;49.40;;;7.53;;
249;SDS011;109;19.806;-70.704;2022-12-07T07:29:06;51.57;;;9.00;;
249;SDS011;109;19.806;-70.704;2022-12-07T07:31:33;46.33;;;8.97;;
249;SDS011;109;19.806;-70.704;2022-12-07T07:34:19;50.73;;;9.10;;
249;SDS011;109;19.806;-70.704;2022-12-07T07:36:52;25.03;;;7.10;;
249;SDS011;109;19.806;-70.704;2022-12-07T07:39:39;16.03;;;5.90;;
249;SDS011;109;19.806;-70.704;2022-12-07T07:42:12;11.57;;;6.30;;
249;SDS011;109;19.806;-70.704;2022-12-07T07:44:53;13.77;;;6.37;;
249;SDS011;109;19.806;-70.704;2022-12-07T07:47:20;11.20;;;6.40;;
249;SDS011;109;19.806;-70.704;2022-12-07T07:50:01;10.93;;;5.90;;
249;SDS011;109;19.806;-70.704;2022-12-07T07:52:41;15.00;;;6.40;;
249;SDS011;109;19.806;-70.704;2022-12-07T07:55:08;9.03;;;5.43;;
249;SDS011;109;19.806;-70.704;2022-12-07T07:57:48;10.47;;;5.40;;
249;SDS011;109;19.806;-70.704;2022-12-07T08:00:15;10.47;;;4.27;;
249;SDS011;109;19.806;-70.704;2022-12-07T08:02:56;11.90;;;4.90;;
249;SDS011;109;19.806;-70.704;2022-12-07T08:05:23;7.90;;;4.67;;
249;SDS011;109;19.806;-70.704;2022-12-07T08:08:02;4.70;;;3.87;;
249;SDS011;109;19.806;-70.704;2022-12-07T08:10:37;6.50;;;4.17;;
249;SDS011;109;19.806;-70.704;2022-12-07T08:13:16;8.60;;;4.43;;
249;SDS011;109;19.806;-70.704;2022-12-07T08:15:44;5.50;;;4.00;;
249;SDS011;109;19.806;-70.704;2022-12-07T08:18:26;5.57;;;4.33;;
249;SDS011;109;19.806;-70.704;2022-12-07T08:20:58;15.33;;;4.97;;
249;SDS011;109;19.806;-70.704;2022-12-07T08:23:38;6.60;;;4.50;;
249;SDS011;109;19.806;-70.704;2022-12-07T08:26:06;8.10;;;4.43;;
249;SDS011;109;19.806;-70.704;2022-12-07T08:28:47;8.67;;;4.70;;
249;SDS011;109;19.806;-70.704;2022-12-07T08:31:15;8.73;;;4.33;;
249;SDS011;109;19.806;-70.704;2022-12-07T08:34:04;10.60;;;4.50;;
249;SDS011;109;19.806;-70.704;2022-12-07T08:36:37;12.20;;;5.23;;
249;SDS011;109;19.806;-70.704;2022-12-07T08:39:33;15.20;;;5.70;;
249;SDS011;109;19.806;-70.704;2022-12-07T08:42:06;13.67;;;5.20;;
249;SDS011;109;19.806;-70.704;2022-12-07T08:44:46;16.30;;;6.40;;
249;SDS011;109;19.806;-70.704;2022-12-07T08:47:13;11.37;;;5.77;;
249;SDS011;109;19.806;-70.704;2022-12-07T08:49:54;11.03;;;5.30;;
249;SDS011;109;19.806;-70.704;2022-12-07T08:52:35;21.83;;;5.90;;
249;SDS011;109;19.806;-70.704;2022-12-07T08:55:03;18.40;;;6.17;;
249;SDS011;109;19.806;-70.704;2022-12-07T08:57:52;15.27;;;6.37;;
249;SDS011;109;19.806;-70.704;2022-12-07T09:00:25;12.90;;;6.10;;
249;SDS011;109;19.806;-70.704;2022-12-07T09:03:05;17.20;;;6.40;;
249;SDS011;109;19.806;-70.704;2022-12-07T09:05:32;18.97;;;7.27;;
249;SDS011;109;19.806;-70.704;2022-12-07T09:08:13;23.47;;;7.17;;
249;SDS011;109;19.806;-70.704;2022-12-07T09:10:40;22.73;;;6.60;;
249;SDS011;109;19.806;-70.704;2022-12-07T09:13:20;12.40;;;6.27;;
249;SDS011;109;19.806;-70.704;2022-12-07T09:15:47;26.70;;;8.23;;
249;SDS011;109;19.806;-70.704;2022-12-07T09:18:27;19.80;;;7.40;;
249;SDS011;109;19.806;-70.704;2022-12-07T09:20:55;19.27;;;7.40;;
249;SDS011;109;19.806;-70.704;2022-12-07T09:23:36;14.20;;;6.23;;
249;SDS011;109;19.806;-70.704;2022-12-07T09:26:03;12.77;;;6.30;;
249;SDS011;109;19.806;-70.704;2022-12-07T09:28:43;16.50;;;7.10;;
249;SDS011;109;19.806;-70.704;2022-12-07T09:31:10;11.53;;;6.47;;
249;SDS011;109;19.806;-70.704;2022-12-07T09:33:56;14.80;;;6.10;;
249;SDS011;109;19.806;-70.704;2022-12-07T09:36:37;10.00;;;5.60;;
249;SDS011;109;19.806;-70.704;2022-12-07T09:39:26;10.60;;;5.50;;
249;SDS011;109;19.806;-70.704;2022-12-07T09:41:59;10.33;;;5.80;;
249;SDS011;109;19.806;-70.704;2022-12-07T09:44:43;11.50;;;5.10;;
249;SDS011;109;19.806;-70.704;2022-12-07T09:47:10;11.23;;;5.93;;
249;SDS011;109;19.806;-70.704;2022-12-07T09:49:50;9.17;;;5.47;;
249;SDS011;109;19.806;-70.704;2022-12-07T09:52:18;11.37;;;5.50;;
249;SDS011;109;19.806;-70.704;2022-12-07T09:55:12;11.37;;;6.03;;
249;SDS011;109;19.806;-70.704;2022-12-07T09:58:01;9.60;;;5.30;;
249;SDS011;109;19.806;-70.704;2022-12-07T10:00:34;9.10;;;5.63;;
249;SDS011;109;19.806;-70.704;2022-12-07T10:03:14;11.27;;;5.80;;
249;SDS011;109;19.806;-70.704;2022-12-07T10:05:42;8.70;;;5.90;;
249;SDS011;109;19.806;-70.704;2022-12-07T10:08:26;8.13;;;5.50;;
249;SDS011;109;19.806;-70.704;2022-12-07T10:10:54;14.60;;;5.90;;
249;SDS011;109;19.806;-70.704;2022-12-07T10:13:43;12.60;;;6.23;;
249;SDS011;109;19.806;-70.704;2022-12-07T10:22:13;16.20;;;6.27;;
249;SDS011;109;19.806;-70.704;2022-12-07T10:24:55;12.43;;;6.17;;
249;SDS011;109;19.806;-70.704;2022-12-07T10:31:18;14.83;;;6.90;;
249;SDS011;109;19.806;-70.704;2022-12-07T10:34:00;10.20;;;6.33;;
249;SDS011;109;19.806;-70.704;2022-12-07T10:36:34;9.10;;;6.20;;
249;SDS011;109;19.806;-70.704;2022-12-07T10:39:17;13.00;;;5.97;;
249;SDS011;109;19.806;-70.704;2022-12-07T10:44:33;13.40;;;6.20;;
249;SDS011;109;19.806;-70.704;2022-12-07T10:47:15;11.23;;;5.70;;
249;SDS011;109;19.806;-70.704;2022-12-07T10:53:00;10.67;;;6.20;;
249;SDS011;109;19.806;-70.704;2022-12-07T10:55:41;11.97;;;6.53;;
249;SDS011;109;19.806;-70.704;2022-12-07T11:01:36;18.87;;;6.87;;
249;SDS011;109;19.806;-70.704;2022-12-07T11:19:24;15.60;;;8.27;;
249;SDS011;109;19.806;-70.704;2022-12-07T11:21:39;11.43;;;7.60;;
249;SDS011;109;19.806;-70.704;2022-12-07T11:24:26;16.67;;;8.17;;
249;SDS011;109;19.806;-70.704;2022-12-07T11:35:05;13.87;;;6.90;;
249;SDS011;109;19.806;-70.704;2022-12-07T11:37:41;12.07;;;7.07;;
249;SDS011;109;19.806;-70.704;2022-12-07T11:46:13;13.60;;;6.93;;
249;SDS011;109;19.806;-70.704;2022-12-07T11:48:43;14.97;;;8.80;;
249;SDS011;109;19.806;-70.704;2022-12-07T11:51:15;14.43;;;7.63;;
249;SDS011;109;19.806;-70.704;2022-12-07T11:53:48;12.27;;;7.50;;
249;SDS011;109;19.806;-70.704;2022-12-07T11:56:21;15.73;;;7.33;;
249;SDS011;109;19.806;-70.704;2022-12-07T11:58:53;17.03;;;7.53;;
249;SDS011;109;19.806;-70.704;2022-12-07T12:06:42;15.33;;;7.30;;
249;SDS011;109;19.806;-70.704;2022-12-07T12:20:26;15.83;;;7.20;;
249;SDS011;109;19.806;-70.704;2022-12-07T12:26:03;16.53;;;7.47;;
249;SDS011;109;19.806;-70.704;2022-12-07T12:31:15;12.43;;;6.20;;
249;SDS011;109;19.806;-70.704;2022-12-07T12:33:48;7.93;;;6.47;;
249;SDS011;109;19.806;-70.704;2022-12-07T12:46:46;13.07;;;7.50;;
249;SDS011;109;19.806;-70.704;2022-12-07T12:51:53;18.00;;;8.53;;
249;SDS011;109;19.806;-70.704;2022-12-07T12:54:29;15.77;;;7.40;;
249;SDS011;109;19.806;-70.704;2022-12-07T12:59:55;10.33;;;5.97;;
249;SDS011;109;19.806;-70.704;2022-12-07T13:08:27;13.40;;;6.30;;
249;SDS011;109;19.806;-70.704;2022-12-07T13:10:54;14.07;;;6.03;;
249;SDS011;109;19.806;-70.704;2022-12-07T13:17:10;9.70;;;5.83;;
249;SDS011;109;19.806;-70.704;2022-12-07T13:19:54;9.27;;;5.10;;
249;SDS011;109;19.806;-70.704;2022-12-07T13:24:57;12.30;;;4.43;;
249;SDS011;109;19.806;-70.704;2022-12-07T13:27:31;16.63;;;4.60;;
249;SDS011;109;19.806;-70.704;2022-12-07T13:29:58;10.50;;;4.80;;
249;SDS011;109;19.806;-70.704;2022-12-07T13:32:27;10.60;;;4.63;;
249;SDS011;109;19.806;-70.704;2022-12-07T13:34:55;12.33;;;5.27;;
249;SDS011;109;19.806;-70.704;2022-12-07T13:37:25;12.30;;;4.63;;
249;SDS011;109;19.806;-70.704;2022-12-07T13:39:55;11.83;;;4.53;;
249;SDS011;109;19.806;-70.704;2022-12-07T13:42:25;15.43;;;4.60;;
249;SDS011;109;19.806;-70.704;2022-12-07T13:44:52;13.83;;;5.00;;
249;SDS011;109;19.806;-70.704;2022-12-07T13:49:53;13.60;;;4.53;;
249;SDS011;109;19.806;-70.704;2022-12-07T13:52:23;8.80;;;4.27;;
249;SDS011;109;19.806;-70.704;2022-12-07T13:57:30;7.80;;;4.23;;
249;SDS011;109;19.806;-70.704;2022-12-07T14:00:04;17.70;;;4.40;;
249;SDS011;109;19.806;-70.704;2022-12-07T14:02:55;14.97;;;5.10;;
249;SDS011;109;19.806;-70.704;2022-12-07T14:05:27;11.00;;;4.87;;
249;SDS011;109;19.806;-70.704;2022-12-07T14:07:56;16.47;;;4.93;;
249;SDS011;109;19.806;-70.704;2022-12-07T14:10:36;39.43;;;6.80;;
249;SDS011;109;19.806;-70.704;2022-12-07T14:16:23;22.20;;;4.87;;
249;SDS011;109;19.806;-70.704;2022-12-07T14:18:53;12.63;;;5.10;;
249;SDS011;109;19.806;-70.704;2022-12-07T14:21:23;11.50;;;4.50;;
249;SDS011;109;19.806;-70.704;2022-12-07T14:26:44;17.17;;;4.50;;
249;SDS011;109;19.806;-70.704;2022-12-07T14:29:27;10.67;;;3.97;;
249;SDS011;109;19.806;-70.704;2022-12-07T14:31:57;9.00;;;3.97;;
249;SDS011;109;19.806;-70.704;2022-12-07T14:34:39;10.03;;;3.57;;
249;SDS011;109;19.806;-70.704;2022-12-07T14:37:07;16.73;;;3.77;;
249;SDS011;109;19.806;-70.704;2022-12-07T14:39:36;14.90;;;3.70;;
249;SDS011;109;19.806;-70.704;2022-12-07T14:42:02;8.90;;;3.43;;
249;SDS011;109;19.806;-70.704;2022-12-07T14:44:29;14.33;;;4.17;;
249;SDS011;109;19.806;-70.704;2022-12-07T14:46:55;14.57;;;3.87;;
249;SDS011;109;19.806;-70.704;2022-12-07T14:49:22;51.30;;;7.10;;
249;SDS011;109;19.806;-70.704;2022-12-07T14:51:48;40.90;;;6.10;;
249;SDS011;109;19.806;-70.704;2022-12-07T14:54:19;18.80;;;5.27;;
249;SDS011;109;19.806;-70.704;2022-12-07T14:56:46;12.80;;;4.10;;
249;SDS011;109;19.806;-70.704;2022-12-07T14:59:16;18.17;;;5.53;;
249;SDS011;109;19.806;-70.704;2022-12-07T15:01:44;17.87;;;4.40;;
249;SDS011;109;19.806;-70.704;2022-12-07T15:04:11;21.53;;;4.77;;
249;SDS011;109;19.806;-70.704;2022-12-07T15:06:37;12.87;;;3.77;;
249;SDS011;109;19.806;-70.704;2022-12-07T15:09:05;9.73;;;3.70;;
249;SDS011;109;19.806;-70.704;2022-12-07T15:11:31;14.20;;;3.43;;
249;SDS011;109;19.806;-70.704;2022-12-07T15:13:58;15.27;;;4.40;;
249;SDS011;109;19.806;-70.704;2022-12-07T15:16:34;32.70;;;4.90;;
249;SDS011;109;19.806;-70.704;2022-12-07T15:19:01;22.10;;;4.20;;
249;SDS011;109;19.806;-70.704;2022-12-07T15:21:28;14.80;;;3.90;;
249;SDS011;109;19.806;-70.704;2022-12-07T15:23:54;15.83;;;3.70;;
249;SDS011;109;19.806;-70.704;2022-12-07T15:26:21;34.30;;;5.53;;
249;SDS011;109;19.806;-70.704;2022-12-07T15:28:47;16.10;;;4.03;;
249;SDS011;109;19.806;-70.704;2022-12-07T15:31:15;11.70;;;4.43;;
249;SDS011;109;19.806;-70.704;2022-12-07T15:33:43;35.20;;;5.67;;
249;SDS011;109;19.806;-70.704;2022-12-07T15:36:17;15.20;;;4.10;;
249;SDS011;109;19.806;-70.704;2022-12-07T15:38:48;10.83;;;4.00;;
249;SDS011;109;19.806;-70.704;2022-12-07T15:41:15;11.43;;;4.00;;
249;SDS011;109;19.806;-70.704;2022-12-07T15:43:42;14.50;;;3.73;;
249;SDS011;109;19.806;-70.704;2022-12-07T15:46:34;14.60;;;3.97;;
249;SDS011;109;19.806;-70.704;2022-12-07T15:49:03;11.83;;;3.77;;
249;SDS011;109;19.806;-70.704;2022-12-07T15:51:32;21.57;;;4.13;;
249;SDS011;109;19.806;-70.704;2022-12-07T15:53:58;14.27;;;4.73;;
249;SDS011;109;19.806;-70.704;2022-12-07T15:56:25;12.60;;;3.67;;
249;SDS011;109;19.806;-70.704;2022-12-07T15:58:51;10.87;;;3.30;;
249;SDS011;109;19.806;-70.704;2022-12-07T16:01:18;10.77;;;4.40;;
249;SDS011;109;19.806;-70.704;2022-12-07T16:03:46;14.30;;;4.13;;
249;SDS011;109;19.806;-70.704;2022-12-07T16:06:15;9.90;;;3.40;;
249;SDS011;109;19.806;-70.704;2022-12-07T16:08:45;17.77;;;3.90;;
249;SDS011;109;19.806;-70.704;2022-12-07T16:11:12;16.53;;;3.73;;
249;SDS011;109;19.806;-70.704;2022-12-07T16:13:39;18.00;;;4.63;;
249;SDS011;109;19.806;-70.704;2022-12-07T16:16:07;11.63;;;3.90;;
249;SDS011;109;19.806;-70.704;2022-12-07T16:18:36;13.23;;;4.07;;
249;SDS011;109;19.806;-70.704;2022-12-07T16:21:03;17.50;;;4.00;;
249;SDS011;109;19.806;-70.704;2022-12-07T16:23:30;14.00;;;4.17;;
249;SDS011;109;19.806;-70.704;2022-12-07T16:28:42;21.13;;;5.77;;
249;SDS011;109;19.806;-70.704;2022-12-07T16:31:13;15.87;;;4.20;;
249;SDS011;109;19.806;-70.704;2022-12-07T16:33:42;19.13;;;4.90;;
249;SDS011;109;19.806;-70.704;2022-12-07T16:36:10;30.77;;;5.73;;
249;SDS011;109;19.806;-70.704;2022-12-07T16:38:44;19.73;;;5.03;;
249;SDS011;109;19.806;-70.704;2022-12-07T16:41:11;21.10;;;6.17;;
249;SDS011;109;19.806;-70.704;2022-12-07T16:43:37;14.33;;;4.50;;
249;SDS011;109;19.806;-70.704;2022-12-07T16:46:04;15.77;;;4.40;;
249;SDS011;109;19.806;-70.704;2022-12-07T16:48:31;22.10;;;5.00;;
249;SDS011;109;19.806;-70.704;2022-12-07T16:51:02;17.63;;;4.77;;
249;SDS011;109;19.806;-70.704;2022-12-07T16:53:30;16.73;;;5.43;;
249;SDS011;109;19.806;-70.704;2022-12-07T16:55:56;9.00;;;4.73;;
249;SDS011;109;19.806;-70.704;2022-12-07T16:58:23;13.57;;;4.20;;
249;SDS011;109;19.806;-70.704;2022-12-07T17:00:49;14.73;;;4.27;;
249;SDS011;109;19.806;-70.704;2022-12-07T17:03:16;16.90;;;4.70;;
249;SDS011;109;19.806;-70.704;2022-12-07T17:05:43;8.57;;;4.23;;
249;SDS011;109;19.806;-70.704;2022-12-07T17:08:11;11.30;;;4.30;;
249;SDS011;109;19.806;-70.704;2022-12-07T17:10:39;8.93;;;3.83;;
249;SDS011;109;19.806;-70.704;2022-12-07T17:13:08;9.63;;;3.60;;
249;SDS011;109;19.806;-70.704;2022-12-07T17:15:57;16.90;;;4.30;;
249;SDS011;109;19.806;-70.704;2022-12-07T17:18:28;25.77;;;5.90;;
249;SDS011;109;19.806;-70.704;2022-12-07T17:21:04;18.63;;;3.90;;
249;SDS011;109;19.806;-70.704;2022-12-07T17:23:33;31.57;;;5.00;;
249;SDS011;109;19.806;-70.704;2022-12-07T17:26:08;17.20;;;4.37;;
249;SDS011;109;19.806;-70.704;2022-12-07T17:28:38;12.10;;;3.57;;
249;SDS011;109;19.806;-70.704;2022-12-07T17:31:05;12.13;;;4.30;;
249;SDS011;109;19.806;-70.704;2022-12-07T17:33:33;13.07;;;4.67;;
249;SDS011;109;19.806;-70.704;2022-12-07T17:36:00;14.60;;;4.33;;
249;SDS011;109;19.806;-70.704;2022-12-07T17:38:29;9.27;;;3.80;;
249;SDS011;109;19.806;-70.704;2022-12-07T17:40:56;12.00;;;4.10;;
249;SDS011;109;19.806;-70.704;2022-12-07T17:43:22;11.40;;;3.67;;
249;SDS011;109;19.806;-70.704;2022-12-07T17:45:49;27.57;;;5.13;;
249;SDS011;109;19.806;-70.704;2022-12-07T17:48:15;25.47;;;6.00;;
249;SDS011;109;19.806;-70.704;2022-12-07T17:50:42;26.23;;;6.10;;
249;SDS011;109;19.806;-70.704;2022-12-07T17:53:26;17.90;;;4.83;;
249;SDS011;109;19.806;-70.704;2022-12-07T17:55:54;22.03;;;5.33;;
249;SDS011;109;19.806;-70.704;2022-12-07T17:58:21;42.47;;;7.53;;
249;SDS011;109;19.806;-70.704;2022-12-07T18:00:47;29.23;;;6.10;;
249;SDS011;109;19.806;-70.704;2022-12-07T18:03:14;21.57;;;4.60;;
249;SDS011;109;19.806;-70.704;2022-12-07T18:05:41;14.70;;;4.37;;
249;SDS011;109;19.806;-70.704;2022-12-07T18:08:09;19.90;;;4.20;;
249;SDS011;109;19.806;-70.704;2022-12-07T18:10:36;26.23;;;4.83;;